Map

Track Data

SID SEASON NUMBER BASIN SUBBASIN NAME ISO_TIME NATURE LAT LON WMO_WIND WMO_PRES WMO_AGENCY TRACK_TYPE DIST2LAND LANDFALL IFLAG USA_AGENCY USA_ATCF_ID USA_LAT USA_LON USA_RECORD USA_STATUS USA_WIND USA_PRES USA_SSHS USA_R34_NE USA_R34_SE USA_R34_SW USA_R34_NW USA_R50_NE USA_R50_SE USA_R50_SW USA_R50_NW USA_R64_NE USA_R64_SE USA_R64_SW USA_R64_NW USA_POCI USA_ROCI USA_RMW USA_EYE TOKYO_LAT TOKYO_LON TOKYO_GRADE TOKYO_WIND TOKYO_PRES TOKYO_R50_DIR TOKYO_R50_LONG TOKYO_R50_SHORT TOKYO_R30_DIR TOKYO_R30_LONG TOKYO_R30_SHORT TOKYO_LAND CMA_LAT CMA_LON CMA_CAT CMA_WIND CMA_PRES HKO_LAT HKO_LON HKO_CAT HKO_WIND HKO_PRES NEWDELHI_LAT NEWDELHI_LON NEWDELHI_GRADE NEWDELHI_WIND NEWDELHI_PRES NEWDELHI_CI NEWDELHI_DP NEWDELHI_POCI REUNION_LAT REUNION_LON REUNION_TYPE REUNION_WIND REUNION_PRES REUNION_TNUM REUNION_CI REUNION_RMW REUNION_R34_NE REUNION_R34_SE REUNION_R34_SW REUNION_R34_NW REUNION_R50_NE REUNION_R50_SE REUNION_R50_SW REUNION_R50_NW REUNION_R64_NE REUNION_R64_SE REUNION_R64_SW REUNION_R64_NW BOM_LAT BOM_LON BOM_TYPE BOM_WIND BOM_PRES BOM_TNUM BOM_CI BOM_RMW BOM_R34_NE BOM_R34_SE BOM_R34_SW BOM_R34_NW BOM_R50_NE BOM_R50_SE BOM_R50_SW BOM_R50_NW BOM_R64_NE BOM_R64_SE BOM_R64_SW BOM_R64_NW BOM_ROCI BOM_POCI BOM_EYE BOM_POS_METHOD BOM_PRES_METHOD NADI_LAT NADI_LON NADI_CAT NADI_WIND NADI_PRES WELLINGTON_LAT WELLINGTON_LON WELLINGTON_WIND WELLINGTON_PRES DS824_LAT DS824_LON DS824_STAGE DS824_WIND DS824_PRES TD9636_LAT TD9636_LON TD9636_STAGE TD9636_WIND TD9636_PRES TD9635_LAT TD9635_LON TD9635_WIND TD9635_PRES TD9635_ROCI NEUMANN_LAT NEUMANN_LON NEUMANN_CLASS NEUMANN_WIND NEUMANN_PRES MLC_LAT MLC_LON MLC_CLASS MLC_WIND MLC_PRES USA_GUST BOM_GUST BOM_GUST_PER REUNION_GUST REUNION_GUST_PER USA_SEAHGT USA_SEARAD_NE USA_SEARAD_SE USA_SEARAD_SW USA_SEARAD_NW STORM_SPEED STORM_DIR
1989260N11316 1989 101 NA NA IRIS 1989-09-16 18:00:00 TS 11.3000 -44.0000 25 1017 hurdat_atl main 1123 1046 O_____________ hurdat_atl AL121989 11.3000 -44.0000 TD 25 1017 -1 20 267
1989260N11316 1989 101 NA NA IRIS 1989-09-16 21:00:00 TS 11.2432 -45.0001 main 1039 975 P_____________ AL121989 11.2432 -45.0001 TD 27 1013 -1 20 267
1989260N11316 1989 101 NA NA IRIS 1989-09-17 00:00:00 TS 11.2000 -46.0000 30 1010 hurdat_atl main 968 912 O_____________ hurdat_atl AL121989 11.2000 -46.0000 TD 30 1010 -1 20 268
1989260N11316 1989 101 NA NA IRIS 1989-09-17 03:00:00 TS 11.1847 -47.0000 main 906 848 P_____________ AL121989 11.1847 -47.0000 TD 30 1009 -1 20 270
1989260N11316 1989 101 NA NA IRIS 1989-09-17 06:00:00 TS 11.2000 -48.0000 30 1009 hurdat_atl main 841 780 O_____________ hurdat_atl AL121989 11.2000 -48.0000 TD 30 1009 -1 20 271
1989260N11316 1989 101 NA NA IRIS 1989-09-17 09:00:00 TS 11.2349 -49.0225 main 780 744 P_____________ AL121989 11.2349 -49.0225 TD 30 1008 -1 20 273
1989260N11316 1989 101 NA NA IRIS 1989-09-17 12:00:00 TS 11.3000 -50.0000 30 1008 hurdat_atl main 739 714 O_____________ hurdat_atl AL121989 11.3000 -50.0000 TD 30 1008 -1 18 274
1989260N11316 1989 101 NA NA IRIS 1989-09-17 15:00:00 TS 11.3772 -50.8876 main 713 684 P_____________ AL121989 11.3772 -50.8876 TD 30 1007 -1 17 277
1989260N11316 1989 101 NA NA IRIS 1989-09-17 18:00:00 TS 11.5000 -51.7000 30 1007 hurdat_atl main 684 668 O_____________ hurdat_atl AL121989 11.5000 -51.7000 TD 30 1007 -1 16 280
1989260N11316 1989 101 NA NA IRIS 1989-09-17 21:00:00 TS 11.6622 -52.4727 main 676 667 P_____________ AL121989 11.6622 -52.4727 TD 32 1006 -1 15 285
1989260N11316 1989 101 NA NA IRIS 1989-09-18 00:00:00 TS 11.9000 -53.2000 35 1005 hurdat_atl main 681 679 O_____________ hurdat_atl AL121989 11.9000 -53.2000 TS 35 1005 0 15 290
1989260N11316 1989 101 NA NA IRIS 1989-09-18 03:00:00 TS 12.1750 -53.9452 main 706 704 P_____________ AL121989 12.1750 -53.9452 TS 35 1004 0 15 297
1989260N11316 1989 101 NA NA IRIS 1989-09-18 06:00:00 TS 12.6000 -54.6000 35 1004 hurdat_atl main 705 700 O_____________ hurdat_atl AL121989 12.6000 -54.6000 TS 35 1004 0 16 313
1989260N11316 1989 101 NA NA IRIS 1989-09-18 09:00:00 TS 13.2323 -55.1100 main 700 694 P_____________ AL121989 13.2323 -55.1100 TS 37 1003 0 17 328
1989260N11316 1989 101 NA NA IRIS 1989-09-18 12:00:00 TS 14.0000 -55.5000 40 1003 hurdat_atl main 702 699 O_____________ hurdat_atl AL121989 14.0000 -55.5000 TS 40 1003 0 17 336
1989260N11316 1989 101 NA NA IRIS 1989-09-18 15:00:00 TS 14.7998 -55.8154 main 727 726 P_____________ AL121989 14.7998 -55.8154 TS 42 1002 0 17 340
1989260N11316 1989 101 NA NA IRIS 1989-09-18 18:00:00 TS 15.6000 -56.1000 45 1002 hurdat_atl main 763 763 O_____________ hurdat_atl AL121989 15.6000 -56.1000 TS 45 1002 0 17 339
1989260N11316 1989 101 NA NA IRIS 1989-09-18 21:00:00 TS 16.3375 -56.4426 main 800 800 P_____________ AL121989 16.3375 -56.4426 TS 47 1001 0 16 334
1989260N11316 1989 101 NA NA IRIS 1989-09-19 00:00:00 TS 17.0000 -56.8000 50 1001 hurdat_atl main 838 838 O_____________ hurdat_atl AL121989 17.0000 -56.8000 TS 50 1001 0 14 331
1989260N11316 1989 101 NA NA IRIS 1989-09-19 03:00:00 TS 17.5724 -57.1503 main 874 855 P_____________ AL121989 17.5724 -57.1503 TS 52 1001 0 13 329
1989260N11316 1989 101 NA NA IRIS 1989-09-19 06:00:00 TS 18.1000 -57.5000 55 1001 hurdat_atl main 855 822 O_____________ hurdat_atl AL121989 18.1000 -57.5000 TS 55 1001 0 13 330
1989260N11316 1989 101 NA NA IRIS 1989-09-19 09:00:00 TS 18.6723 -57.8278 main 822 783 P_____________ AL121989 18.6723 -57.8278 TS 57 1001 0 13 329
1989260N11316 1989 101 NA NA IRIS 1989-09-19 12:00:00 TS 19.2000 -58.2000 60 1001 hurdat_atl main 784 748 O_____________ hurdat_atl AL121989 19.2000 -58.2000 TS 60 1001 0 13 321
1989260N11316 1989 101 NA NA IRIS 1989-09-19 15:00:00 TS 19.6450 -58.6701 main 737 695 P_____________ AL121989 19.6450 -58.6701 TS 60 1001 0 12 310
1989260N11316 1989 101 NA NA IRIS 1989-09-19 18:00:00 TS 20.0000 -59.2000 60 1001 hurdat_atl main 695 651 O_____________ hurdat_atl AL121989 20.0000 -59.2000 TS 60 1001 0 12 302
1989260N11316 1989 101 NA NA IRIS 1989-09-19 21:00:00 TS 20.2800 -59.7502 main 644 603 P_____________ AL121989 20.2800 -59.7502 TS 55 1001 0 11 296
1989260N11316 1989 101 NA NA IRIS 1989-09-20 00:00:00 TS 20.5000 -60.3000 50 1002 hurdat_atl main 603 564 O_____________ hurdat_atl AL121989 20.5000 -60.3000 TS 50 1002 0 11 293
1989260N11316 1989 101 NA NA IRIS 1989-09-20 03:00:00 TS 20.7073 -60.8152 main 564 529 P_____________ AL121989 20.7073 -60.8152 TS 45 1002 0 10 293
1989260N11316 1989 101 NA NA IRIS 1989-09-20 06:00:00 TS 20.9000 -61.3000 40 1003 hurdat_atl main 529 507 O_____________ hurdat_atl AL121989 20.9000 -61.3000 TS 40 1003 0 10 294
1989260N11316 1989 101 NA NA IRIS 1989-09-20 09:00:00 TS 21.0998 -61.7576 main 499 481 P_____________ AL121989 21.0998 -61.7576 TS 37 1004 0 9 295
1989260N11316 1989 101 NA NA IRIS 1989-09-20 12:00:00 TS 21.3000 -62.2000 35 1005 hurdat_atl main 481 466 O_____________ hurdat_atl AL121989 21.3000 -62.2000 TS 35 1005 0 9 297
1989260N11316 1989 101 NA NA IRIS 1989-09-20 15:00:00 TS 21.5148 -62.6425 main 467 452 P_____________ AL121989 21.5148 -62.6425 TS 35 1006 0 9 296
1989260N11316 1989 101 NA NA IRIS 1989-09-20 18:00:00 TS 21.7000 -63.1000 35 1007 hurdat_atl main 452 433 O_____________ hurdat_atl AL121989 21.7000 -63.1000 TS 35 1007 0 9 288
1989260N11316 1989 101 NA NA IRIS 1989-09-20 21:00:00 TS 21.8074 -63.5928 main 433 421 P_____________ AL121989 21.8074 -63.5928 TS 32 1007 -1 10 282
1989260N11316 1989 101 NA NA IRIS 1989-09-21 00:00:00 TS 21.9000 -64.1000 30 1008 hurdat_atl main 421 414 O_____________ hurdat_atl AL121989 21.9000 -64.1000 TD 30 1008 -1 10 284
1989260N11316 1989 101 NA NA IRIS 1989-09-21 03:00:00 TS 22.0499 -64.6074 main 415 415 P_____________ AL121989 22.0499 -64.6074 TD 30 1009 -1 10 288
1989260N11316 1989 101 NA NA IRIS 1989-09-21 06:00:00 TS 22.2000 -65.1000 30 1010 hurdat_atl main 428 426 O_____________ hurdat_atl AL121989 22.2000 -65.1000 TD 30 1010 -1 9 287
1989260N11316 1989 101 NA NA IRIS 1989-09-21 09:00:00 TS 22.3147 -65.5501 main 436 436 P_____________ AL121989 22.3147 -65.5501 TD 27 1010 -1 9 283
1989260N11316 1989 101 NA NA IRIS 1989-09-21 12:00:00 TS 22.4000 -66.0000 25 1011 hurdat_atl main 447 447 O_____________ hurdat_atl AL121989 22.4000 -66.0000 TD 25 1011 -1 9 279
1989260N11316 1989 101 NA NA IRIS 1989-09-21 15:00:00 TS 22.4579 -66.4874 main 458 430 P_____________ AL121989 22.4579 -66.4874 TD 25 1011 -1 9 276
1989260N11316 1989 101 NA NA IRIS 1989-09-21 18:00:00 TS 22.5000 -67.0000 25 1012 hurdat_atl main 430 O_____________ hurdat_atl AL121989 22.5000 -67.0000 TD 25 1012 -1 10 275

About IBTrACS Database

This database is a web-friendly format of International Best Track Archive for Climate Stewardship (IBTrACS), a global best track data archive curated by NOAA dating back to 1842.

Updated: 2021-10-21